Time,TemperatureF,DewpointF,PressureIn,WindDirection,WindDirectionDegrees,WindSpeedMPH,WindSpeedGustMPH,Humidity,HourlyPrecipIn,Conditions,Clouds,dailyrainin,SoftwareType,DateUTC
2013-02-13 00:00:00,16.6,4.0,30.23,WNW,287,4.9,7.9,56,0.00,,,0.00,CWS Microserver 1.4,2013-02-13 07:00:00,
2013-02-13 00:05:00,16.6,4.1,30.23,SSW,194,3.1,9.0,57,0.00,,,0.00,CWS Microserver 1.4,2013-02-13 07:05:00,
2013-02-13 00:10:00,16.4,4.6,30.23,West,268,4.0,9.0,59,0.00,,,0.00,CWS Microserver 1.4,2013-02-13 07:10:00,
2013-02-13 00:16:00,17.8,4.5,30.24,WNW,294,8.2,8.7,55,0.00,,,0.00,CWS Microserver 1.4,2013-02-13 07:16:00,
2013-02-13 00:21:00,17.6,4.2,30.23,SSW,208,4.6,8.7,55,0.00,,,0.00,CWS Microserver 1.4,2013-02-13 07:21:00,
2013-02-13 00:26:00,16.9,4.1,30.23,SW,230,4.9,8.2,56,0.00,,,0.00,CWS Microserver 1.4,2013-02-13 07:26:00,
2013-02-13 00:36:00,16.9,4.0,30.23,WNW,301,5.3,8.0,56,0.00,,,0.00,CWS Microserver 1.4,2013-02-13 07:36:00,
2013-02-13 00:41:00,17.1,4.0,30.23,WNW,287,2.5,8.0,55,0.00,,,0.00,CWS Microserver 1.4,2013-02-13 07:41:00,
2013-02-13 00:46:00,16.7,4.0,30.23,SSW,207,3.4,7.9,56,0.00,,,0.00,CWS Microserver 1.4,2013-02-13 07:46:00,
2013-02-13 00:51:00,16.0,4.0,30.23,West,271,2.7,8.0,58,0.00,,,0.00,CWS Microserver 1.4,2013-02-13 07:51:00,
2013-02-13 00:59:00,17.1,4.4,30.23,North,2,1.8,6.2,56,0.00,,,0.00,CWS Microserver 1.4,2013-02-13 07:59:00,
2013-02-13 01:04:00,17.6,4.5,30.23,SW,225,2.7,6.2,55,0.00,,,0.00,CWS Microserver 1.4,2013-02-13 08:04:00,
2013-02-13 01:09:00,17.6,4.4,30.22,SSW,195,3.4,5.7,55,0.00,,,0.00,CWS Microserver 1.4,2013-02-13 08:09:00,
2013-02-13 01:14:00,17.1,4.5,30.22,SW,220,1.6,5.5,57,0.00,,,0.00,CWS Microserver 1.4,2013-02-13 08:14:00,
2013-02-13 01:19:00,16.6,4.4,30.22,SW,229,4.4,5.5,58,0.00,,,0.00,CWS Microserver 1.4,2013-02-13 08:19:00,
2013-02-13 01:24:00,17.1,4.3,30.22,NNW,327,3.3,7.7,56,0.00,,,0.00,CWS Microserver 1.4,2013-02-13 08:24:00,
2013-02-13 01:29:00,18.2,4.3,30.22,NW,306,7.4,11.4,54,0.00,,,0.00,CWS Microserver 1.4,2013-02-13 08:29:00,
2013-02-13 01:36:00,19.1,4.5,30.21,WSW,248,2.1,11.1,52,0.00,,,0.00,CWS Microserver 1.4,2013-02-13 08:36:00,
2013-02-13 01:41:00,19.4,4.5,30.22,WNW,299,3.9,11.1,51,0.00,,,0.00,CWS Microserver 1.4,2013-02-13 08:41:00,
2013-02-13 01:46:00,19.6,4.9,30.22,WSW,253,4.4,10.1,52,0.00,,,0.00,CWS Microserver 1.4,2013-02-13 08:46:00,
2013-02-13 01:56:00,20.5,5.1,30.22,NW,310,2.8,9.9,50,0.00,,,0.00,CWS Microserver 1.4,2013-02-13 08:56:00,
2013-02-13 02:06:00,20.2,5.6,30.21,NW,325,3.2,7.6,52,0.00,,,0.00,CWS Microserver 1.4,2013-02-13 09:06:00,
2013-02-13 02:16:00,20.7,5.8,30.21,West,275,2.6,10.6,52,0.00,,,0.00,CWS Microserver 1.4,2013-02-13 09:16:00,
2013-02-13 02:25:00,20.2,6.4,30.20,NW,325,2.1,6.0,54,0.00,,,0.00,CWS Microserver 1.4,2013-02-13 09:25:00,
2013-02-13 02:39:00,20.5,6.1,30.20,West,259,1.4,10.8,53,0.00,,,0.00,CWS Microserver 1.4,2013-02-13 09:39:00,
2013-02-13 02:43:00,20.0,6.4,30.19,WNW,295,3.7,10.8,55,0.00,,,0.00,CWS Microserver 1.4,2013-02-13 09:43:00,
2013-02-13 02:48:00,19.4,6.3,30.19,West,274,6.2,6.5,56,0.00,,,0.00,CWS Microserver 1.4,2013-02-13 09:48:00,
2013-02-13 02:58:00,18.5,6.3,30.19,NW,306,1.4,5.7,58,0.00,,,0.00,CWS Microserver 1.4,2013-02-13 09:58:00,
2013-02-13 03:03:00,18.9,6.3,30.19,NW,304,6.9,8.7,57,0.00,,,0.00,CWS Microserver 1.4,2013-02-13 10:03:00,
2013-02-13 03:08:00,19.8,6.6,30.19,NNW,332,2.4,9.8,55,0.00,,,0.00,CWS Microserver 1.4,2013-02-13 10:08:00,
2013-02-13 03:13:00,19.4,6.4,30.19,NW,310,3.1,9.8,56,0.00,,,0.00,CWS Microserver 1.4,2013-02-13 10:13:00,
2013-02-13 03:18:00,19.1,6.4,30.18,WSW,250,1.6,9.2,57,0.00,,,0.00,CWS Microserver 1.4,2013-02-13 10:18:00,
2013-02-13 03:23:00,19.8,6.4,30.19,WNW,301,5.1,10.6,55,0.00,,,0.00,CWS Microserver 1.4,2013-02-13 10:23:00,
2013-02-13 03:28:00,20.3,6.3,30.18,WNW,294,10.2,14.0,54,0.00,,,0.00,CWS Microserver 1.4,2013-02-13 10:28:00,
2013-02-13 03:33:00,21.1,6.3,30.19,WNW,296,9.7,14.0,52,0.00,,,0.00,CWS Microserver 1.4,2013-02-13 10:33:00,
2013-02-13 03:42:00,22.0,6.1,30.19,WNW,297,4.7,13.4,49,0.00,,,0.00,CWS Microserver 1.4,2013-02-13 10:42:00,
2013-02-13 03:47:00,22.0,6.1,30.19,NW,307,3.7,13.4,49,0.00,,,0.00,CWS Microserver 1.4,2013-02-13 10:47:00,
2013-02-13 03:52:00,22.0,6.1,30.19,WNW,296,6.7,12.3,49,0.00,,,0.00,CWS Microserver 1.4,2013-02-13 10:52:00,
2013-02-13 03:57:00,22.1,6.1,30.19,NW,308,1.4,13.7,49,0.00,,,0.00,CWS Microserver 1.4,2013-02-13 10:57:00,
2013-02-13 04:02:00,22.0,6.1,30.19,NW,319,8.0,13.7,49,0.00,,,0.00,CWS Microserver 1.4,2013-02-13 11:02:00,
2013-02-13 04:07:00,22.5,6.3,30.19,NNW,338,5.0,16.3,49,0.00,,,0.00,CWS Microserver 1.4,2013-02-13 11:07:00,
2013-02-13 04:12:00,22.3,6.3,30.20,NNW,331,2.1,16.3,49,0.00,,,0.00,CWS Microserver 1.4,2013-02-13 11:12:00,
2013-02-13 04:21:00,22.0,6.1,30.19,SW,233,3.8,8.9,49,0.00,,,0.00,CWS Microserver 1.4,2013-02-13 11:21:00,
2013-02-13 04:26:00,22.1,5.9,30.19,NNW,337,2.9,15.6,49,0.00,,,0.00,CWS Microserver 1.4,2013-02-13 11:26:00,
2013-02-13 04:31:00,22.1,5.8,30.19,WNW,298,7.7,15.6,49,0.00,,,0.00,CWS Microserver 1.4,2013-02-13 11:31:00,
2013-02-13 04:38:00,22.5,5.9,30.20,NW,317,5.7,13.2,48,0.00,,,0.00,CWS Microserver 1.4,2013-02-13 11:38:00,
2013-02-13 04:48:00,22.1,5.9,30.20,NNW,334,0.9,12.9,49,0.00,,,0.00,CWS Microserver 1.4,2013-02-13 11:48:00,
2013-02-13 04:53:00,21.8,5.8,30.20,WSW,254,5.2,12.9,49,0.00,,,0.00,CWS Microserver 1.4,2013-02-13 11:53:00,
2013-02-13 04:58:00,22.0,5.8,30.20,NNW,336,3.8,11.7,49,0.00,,,0.00,CWS Microserver 1.4,2013-02-13 11:58:00,
2013-02-13 05:03:00,21.6,5.7,30.20,NW,309,6.7,7.6,49,0.00,,,0.00,CWS Microserver 1.4,2013-02-13 12:03:00,
2013-02-13 05:14:00,21.6,5.7,30.20,West,265,3.5,11.3,49,0.00,,,0.00,CWS Microserver 1.4,2013-02-13 12:14:00,
2013-02-13 05:19:00,21.8,5.6,30.20,NNW,329,5.9,12.5,49,0.00,,,0.00,CWS Microserver 1.4,2013-02-13 12:19:00,
2013-02-13 05:24:00,21.8,5.6,30.20,SW,224,6.8,13.3,49,0.00,,,0.00,CWS Microserver 1.4,2013-02-13 12:24:00,
2013-02-13 05:31:00,22.0,5.8,30.20,NW,323,10.0,15.5,49,0.00,,,0.00,CWS Microserver 1.4,2013-02-13 12:31:00,
2013-02-13 05:41:00,21.8,5.6,30.21,SW,232,6.0,13.3,49,0.00,,,0.00,CWS Microserver 1.4,2013-02-13 12:41:00,
2013-02-13 05:46:00,21.8,5.4,30.20,NW,317,13.2,25.2,48,0.00,,,0.00,CWS Microserver 1.4,2013-02-13 12:46:00,
2013-02-13 05:51:00,22.0,5.6,30.20,WSW,255,2.5,25.2,48,0.00,,,0.00,CWS Microserver 1.4,2013-02-13 12:51:00,
2013-02-13 05:57:00,21.8,5.4,30.20,NNW,339,7.4,24.7,48,0.00,,,0.00,CWS Microserver 1.4,2013-02-13 12:57:00,
2013-02-13 06:02:00,22.0,5.7,30.19,WNW,296,8.4,24.7,48,0.00,,,0.00,CWS Microserver 1.4,2013-02-13 13:02:00,
2013-02-13 06:07:00,22.0,5.5,30.19,WSW,258,3.3,20.7,48,0.00,,,0.00,CWS Microserver 1.4,2013-02-13 13:07:00,
2013-02-13 06:12:00,22.0,5.3,30.19,NW,312,18.7,24.2,48,0.00,,,0.00,CWS Microserver 1.4,2013-02-13 13:12:00,
2013-02-13 06:17:00,22.0,5.3,30.19,WNW,297,6.9,24.2,47,0.00,,,0.00,CWS Microserver 1.4,2013-02-13 13:17:00,
2013-02-13 06:22:00,22.0,5.3,30.19,NW,306,11.9,20.8,48,0.00,,,0.00,CWS Microserver 1.4,2013-02-13 13:22:00,
2013-02-13 06:27:00,22.1,5.2,30.19,West,265,10.8,19.7,47,0.00,,,0.00,CWS Microserver 1.4,2013-02-13 13:27:00,
2013-02-13 06:32:00,22.0,5.1,30.19,NW,315,8.7,19.7,47,0.00,,,0.00,CWS Microserver 1.4,2013-02-13 13:32:00,
2013-02-13 06:41:00,22.3,5.0,30.18,West,267,5.9,16.4,46,0.00,,,0.00,CWS Microserver 1.4,2013-02-13 13:41:00,
2013-02-13 06:46:00,22.3,4.9,30.18,WNW,299,2.7,16.6,46,0.00,,,0.00,CWS Microserver 1.4,2013-02-13 13:46:00,
2013-02-13 06:51:00,22.5,5.2,30.18,NW,314,11.7,19.1,46,0.00,,,0.00,CWS Microserver 1.4,2013-02-13 13:51:00,
2013-02-13 06:56:00,22.3,5.1,30.19,NW,308,11.8,19.1,47,0.00,,,0.00,CWS Microserver 1.4,2013-02-13 13:56:00,
2013-02-13 07:01:00,22.3,5.1,30.18,WNW,286,7.8,21.4,47,0.00,,,0.00,CWS Microserver 1.4,2013-02-13 14:01:00,
2013-02-13 07:10:00,22.9,5.3,30.19,West,280,5.7,16.3,46,0.00,,,0.00,CWS Microserver 1.4,2013-02-13 14:10:00,
2013-02-13 07:24:00,22.9,5.6,30.20,SSW,212,3.7,14.2,46,0.00,,,0.00,CWS Microserver 1.4,2013-02-13 14:24:00,
2013-02-13 07:29:00,22.9,5.9,30.20,North,8,2.3,14.2,47,0.00,,,0.00,CWS Microserver 1.4,2013-02-13 14:29:00,
2013-02-13 07:34:00,22.9,6.3,30.21,SSW,200,1.8,9.4,48,0.00,,,0.00,CWS Microserver 1.4,2013-02-13 14:34:00,
2013-02-13 07:39:00,23.0,5.6,30.21,NNW,337,7.1,9.0,46,0.00,,,0.00,CWS Microserver 1.4,2013-02-13 14:39:00,
2013-02-13 07:44:00,23.4,5.9,30.21,NW,320,2.5,9.0,46,0.00,,,0.00,CWS Microserver 1.4,2013-02-13 14:44:00,
2013-02-13 07:49:00,23.9,5.7,30.21,NNW,346,8.9,11.7,45,0.00,,,0.00,CWS Microserver 1.4,2013-02-13 14:49:00,
2013-02-13 07:54:00,24.3,6.0,30.21,NW,305,8.5,12.4,45,0.00,,,0.00,CWS Microserver 1.4,2013-02-13 14:54:00,
2013-02-13 07:59:00,24.5,6.0,30.21,WNW,293,5.9,13.8,44,0.00,,,0.00,CWS Microserver 1.4,2013-02-13 14:59:00,
2013-02-13 08:04:00,24.7,6.2,30.21,West,277,2.2,13.8,44,0.00,,,0.00,CWS Microserver 1.4,2013-02-13 15:04:00,
2013-02-13 08:14:00,24.8,6.4,30.21,NNW,341,3.8,11.6,44,0.00,,,0.00,CWS Microserver 1.4,2013-02-13 15:14:00,
2013-02-13 08:30:00,25.0,5.9,30.21,South,171,3.8,17.8,43,0.00,,,0.00,CWS Microserver 1.4,2013-02-13 15:30:00,
2013-02-13 08:35:00,25.2,5.5,30.21,NNW,335,4.6,22.9,42,0.00,,,0.00,CWS Microserver 1.4,2013-02-13 15:35:00,
2013-02-13 08:40:00,25.6,5.3,30.20,West,262,0.4,22.9,41,0.00,,,0.00,CWS Microserver 1.4,2013-02-13 15:40:00,
2013-02-13 08:45:00,26.1,5.0,30.20,West,281,3.7,24.6,39,0.00,,,0.00,CWS Microserver 1.4,2013-02-13 15:45:00,
2013-02-13 08:57:00,26.6,5.3,30.21,NNW,339,8.2,24.2,39,0.00,,,0.00,CWS Microserver 1.4,2013-02-13 15:57:00,
2013-02-13 09:06:00,27.4,5.6,30.21,WSW,243,4.3,15.1,38,0.00,,,0.00,CWS Microserver 1.4,2013-02-13 16:06:00,
2013-02-13 09:11:00,27.2,5.4,30.20,North,9,2.2,15.1,38,0.00,,,0.00,CWS Microserver 1.4,2013-02-13 16:11:00,
2013-02-13 09:16:00,26.6,5.4,30.20,SSE,150,1.2,20.2,39,0.00,,,0.00,CWS Microserver 1.4,2013-02-13 16:16:00,
2013-02-13 09:21:00,26.6,5.7,30.21,North,0,2.6,20.2,40,0.00,,,0.00,CWS Microserver 1.4,2013-02-13 16:21:00,
2013-02-13 09:26:00,26.5,5.8,30.20,NW,309,11.0,18.3,40,0.00,,,0.00,CWS Microserver 1.4,2013-02-13 16:26:00,
2013-02-13 09:36:00,25.6,5.2,30.21,SW,234,5.6,17.1,41,0.00,,,0.00,CWS Microserver 1.4,2013-02-13 16:36:00,
2013-02-13 09:41:00,25.4,5.5,30.21,NW,308,11.2,19.7,42,0.00,,,0.00,CWS Microserver 1.4,2013-02-13 16:41:00,
2013-02-13 09:46:00,25.2,5.2,30.21,WSW,239,5.4,19.7,41,0.00,,,0.00,CWS Microserver 1.4,2013-02-13 16:46:00,
2013-02-13 09:51:00,25.2,5.3,30.21,NNE,19,5.1,17.5,42,0.00,,,0.00,CWS Microserver 1.4,2013-02-13 16:51:00,
2013-02-13 09:56:00,25.2,5.1,30.22,WNW,288,8.6,12.8,41,0.00,,,0.00,CWS Microserver 1.4,2013-02-13 16:56:00,
2013-02-13 10:06:00,25.0,5.4,30.21,North,6,6.1,15.9,42,0.00,,,0.00,CWS Microserver 1.4,2013-02-13 17:06:00,
2013-02-13 10:11:00,25.0,5.7,30.22,NW,312,7.2,15.9,43,0.00,,,0.00,CWS Microserver 1.4,2013-02-13 17:11:00,
2013-02-13 10:16:00,25.0,6.1,30.22,NNW,347,5.3,15.2,44,0.00,,,0.00,CWS Microserver 1.4,2013-02-13 17:16:00,
2013-02-13 10:23:00,25.0,6.3,30.22,NW,312,4.2,11.4,44,0.00,,,0.00,CWS Microserver 1.4,2013-02-13 17:23:00,
2013-02-13 10:28:00,25.0,6.6,30.22,ESE,104,2.3,16.7,44,0.00,,,0.00,CWS Microserver 1.4,2013-02-13 17:28:00,
2013-02-13 10:33:00,25.2,6.8,30.22,NW,312,5.8,17.4,44,0.00,,,0.00,CWS Microserver 1.4,2013-02-13 17:33:00,
2013-02-13 10:38:00,25.2,7.1,30.24,West,266,5.9,17.4,45,0.00,,,0.00,CWS Microserver 1.4,2013-02-13 17:38:00,
2013-02-13 10:43:00,25.2,7.3,30.23,NNW,330,3.7,16.2,45,0.00,,,0.00,CWS Microserver 1.4,2013-02-13 17:43:00,
2013-02-13 10:48:00,25.2,7.5,30.24,East,86,5.8,14.9,46,0.00,,,0.00,CWS Microserver 1.4,2013-02-13 17:48:00,
2013-02-13 10:53:00,25.2,7.5,30.24,NE,43,3.3,13.1,46,0.00,,,0.00,CWS Microserver 1.4,2013-02-13 17:53:00,
2013-02-13 10:59:00,25.2,7.9,30.24,East,82,6.6,8.5,47,0.00,,,0.00,CWS Microserver 1.4,2013-02-13 17:59:00,
2013-02-13 11:09:00,25.2,8.6,30.24,East,93,6.2,9.5,48,0.00,,,0.00,CWS Microserver 1.4,2013-02-13 18:09:00,
2013-02-13 11:14:00,25.2,8.5,30.24,North,358,1.6,9.5,48,0.00,,,0.00,CWS Microserver 1.4,2013-02-13 18:14:00,
2013-02-13 11:19:00,25.4,8.8,30.24,NW,306,3.7,6.5,48,0.00,,,0.00,CWS Microserver 1.4,2013-02-13 18:19:00,
2013-02-13 11:29:00,25.7,8.9,30.24,WSW,251,5.1,13.3,48,0.00,,,0.00,CWS Microserver 1.4,2013-02-13 18:29:00,
2013-02-13 11:34:00,25.9,8.9,30.24,WNW,299,1.7,13.3,48,0.00,,,0.00,CWS Microserver 1.4,2013-02-13 18:34:00,
2013-02-13 11:39:00,26.3,9.1,30.24,WNW,296,4.8,8.3,47,0.00,,,0.00,CWS Microserver 1.4,2013-02-13 18:39:00,
2013-02-13 11:44:00,26.3,8.8,30.23,NW,319,3.4,12.1,47,0.00,,,0.00,CWS Microserver 1.4,2013-02-13 18:44:00,
2013-02-13 12:08:00,27.4,9.9,30.20,NW,310,6.2,15.0,47,0.00,,,0.00,CWS Microserver 1.4,2013-02-13 19:08:00,
2013-02-13 12:18:00,27.7,9.5,30.21,NE,47,7.7,15.4,45,0.00,,,0.00,CWS Microserver 1.4,2013-02-13 19:18:00,
2013-02-13 12:28:00,28.1,8.9,30.21,South,185,2.7,10.6,43,0.00,,,0.00,CWS Microserver 1.4,2013-02-13 19:28:00,
2013-02-13 12:38:00,27.9,8.2,30.20,WSW,255,6.1,12.5,42,0.00,,,0.00,CWS Microserver 1.4,2013-02-13 19:38:00,
2013-02-13 12:43:00,27.9,8.3,30.21,WSW,239,7.3,12.7,43,0.00,,,0.00,CWS Microserver 1.4,2013-02-13 19:43:00,
2013-02-13 12:48:00,28.1,8.4,30.21,NNW,338,4.6,14.2,42,0.00,,,0.00,CWS Microserver 1.4,2013-02-13 19:48:00,
2013-02-13 12:53:00,28.1,8.4,30.21,SSW,197,4.7,14.2,42,0.00,,,0.00,CWS Microserver 1.4,2013-02-13 19:53:00,
2013-02-13 13:08:00,28.1,9.7,30.21,SE,142,2.0,16.1,45,0.00,,,0.00,CWS Microserver 1.4,2013-02-13 20:08:00,
2013-02-13 13:13:00,28.3,9.6,30.20,NW,323,5.2,16.1,44,0.00,,,0.00,CWS Microserver 1.4,2013-02-13 20:13:00,
2013-02-13 13:18:00,28.8,10.0,30.21,WNW,302,13.1,20.8,44,0.00,,,0.00,CWS Microserver 1.4,2013-02-13 20:18:00,
2013-02-13 13:23:00,29.2,10.3,30.21,NW,308,9.9,20.8,44,0.00,,,0.00,CWS Microserver 1.4,2013-02-13 20:23:00,
2013-02-13 13:28:00,29.9,10.2,30.21,WNW,285,8.2,17.1,43,0.00,,,0.00,CWS Microserver 1.4,2013-02-13 20:28:00,
2013-02-13 13:33:00,30.2,10.2,30.21,North,349,10.5,18.9,42,0.00,,,0.00,CWS Microserver 1.4,2013-02-13 20:33:00,
2013-02-13 13:38:00,30.8,11.1,30.20,SW,234,5.7,18.9,43,0.00,,,0.00,CWS Microserver 1.4,2013-02-13 20:38:00,
2013-02-13 13:43:00,31.0,10.7,30.20,NNW,328,3.3,17.8,42,0.00,,,0.00,CWS Microserver 1.4,2013-02-13 20:43:00,
2013-02-13 13:48:00,30.4,10.5,30.19,SW,235,3.4,26.0,42,0.00,,,0.00,CWS Microserver 1.4,2013-02-13 20:48:00,
2013-02-13 13:53:00,30.2,11.3,30.19,WNW,301,10.2,26.0,44,0.00,,,0.00,CWS Microserver 1.4,2013-02-13 20:53:00,
2013-02-13 13:58:00,29.5,10.5,30.20,West,264,12.2,23.1,44,0.00,,,0.00,CWS Microserver 1.4,2013-02-13 20:58:00,
2013-02-13 14:11:00,29.5,10.9,30.20,WNW,295,10.0,17.4,45,0.00,,,0.00,CWS Microserver 1.4,2013-02-13 21:11:00,
2013-02-13 14:16:00,29.3,11.3,30.20,NW,313,14.6,17.5,46,0.00,,,0.00,CWS Microserver 1.4,2013-02-13 21:16:00,
2013-02-13 14:21:00,29.3,10.8,30.19,NW,314,16.9,19.9,45,0.00,,,0.00,CWS Microserver 1.4,2013-02-13 21:21:00,
2013-02-13 14:26:00,29.3,11.3,30.19,WNW,292,7.8,19.9,46,0.00,,,0.00,CWS Microserver 1.4,2013-02-13 21:26:00,
2013-02-13 14:31:00,29.7,11.2,30.18,NW,313,10.1,18.9,45,0.00,,,0.00,CWS Microserver 1.4,2013-02-13 21:31:00,
2013-02-13 14:36:00,30.1,10.7,30.18,NNW,335,7.2,19.9,43,0.00,,,0.00,CWS Microserver 1.4,2013-02-13 21:36:00,
2013-02-13 14:41:00,30.2,10.9,30.18,NW,325,8.4,27.2,44,0.00,,,0.00,CWS Microserver 1.4,2013-02-13 21:41:00,
2013-02-13 14:54:00,30.2,10.6,30.19,WNW,302,6.4,22.7,43,0.00,,,0.00,CWS Microserver 1.4,2013-02-13 21:54:00,
2013-02-13 14:59:00,30.4,10.6,30.19,NW,326,13.1,22.7,43,0.00,,,0.00,CWS Microserver 1.4,2013-02-13 21:59:00,
2013-02-13 15:04:00,29.9,11.0,30.19,WNW,302,21.9,22.2,44,0.00,,,0.00,CWS Microserver 1.4,2013-02-13 22:04:00,
2013-02-13 15:09:00,29.9,11.8,30.19,NNW,342,3.1,23.3,46,0.00,,,0.00,CWS Microserver 1.4,2013-02-13 22:09:00,
2013-02-13 15:17:00,29.2,12.7,30.20,SW,224,2.9,16.8,49,0.00,,,0.00,CWS Microserver 1.4,2013-02-13 22:17:00,
2013-02-13 15:27:00,29.0,12.7,30.20,SE,134,1.9,11.8,50,0.00,,,0.00,CWS Microserver 1.4,2013-02-13 22:27:00,
2013-02-13 15:37:00,29.3,11.8,30.20,WNW,293,6.5,12.5,47,0.00,,,0.00,CWS Microserver 1.4,2013-02-13 22:37:00,
2013-02-13 15:42:00,29.7,10.9,30.20,ENE,57,1.7,12.5,44,0.00,,,0.00,CWS Microserver 1.4,2013-02-13 22:42:00,
2013-02-13 15:47:00,29.7,10.7,30.21,NNW,336,4.3,16.8,44,0.00,,,0.00,CWS Microserver 1.4,2013-02-13 22:47:00,
2013-02-13 15:52:00,29.9,10.9,30.21,NNW,329,12.7,16.8,44,0.00,,,0.00,CWS Microserver 1.4,2013-02-13 22:52:00,
2013-02-13 15:57:00,29.9,10.8,30.21,WNW,289,7.9,13.6,44,0.00,,,0.00,CWS Microserver 1.4,2013-02-13 22:57:00,
2013-02-13 16:02:00,30.1,10.8,30.21,SW,234,5.9,17.1,43,0.00,,,0.00,CWS Microserver 1.4,2013-02-13 23:02:00,
2013-02-13 16:07:00,30.1,10.8,30.21,NNW,336,5.9,17.1,44,0.00,,,0.00,CWS Microserver 1.4,2013-02-13 23:07:00,
2013-02-13 16:12:00,30.1,10.4,30.21,ESE,103,0.6,14.2,43,0.00,,,0.00,CWS Microserver 1.4,2013-02-13 23:12:00,
2013-02-13 16:21:00,29.9,10.3,30.21,ESE,110,1.1,10.0,43,0.00,,,0.00,CWS Microserver 1.4,2013-02-13 23:21:00,
2013-02-13 16:31:00,29.9,10.3,30.21,West,266,3.6,13.3,43,0.00,,,0.00,CWS Microserver 1.4,2013-02-13 23:31:00,
2013-02-13 16:36:00,29.7,10.2,30.22,NW,309,16.3,18.5,43,0.00,,,0.00,CWS Microserver 1.4,2013-02-13 23:36:00,
2013-02-13 16:41:00,29.7,9.9,30.22,NNE,29,6.3,18.5,42,0.00,,,0.00,CWS Microserver 1.4,2013-02-13 23:41:00,
2013-02-13 16:47:00,29.5,10.2,30.22,West,267,9.1,13.8,43,0.00,,,0.00,CWS Microserver 1.4,2013-02-13 23:47:00,
2013-02-13 16:52:00,29.3,10.5,30.21,ESE,122,6.4,13.9,44,0.00,,,0.00,CWS Microserver 1.4,2013-02-13 23:52:00,
2013-02-13 16:57:00,29.2,11.2,30.22,WNW,302,0.7,13.9,46,0.00,,,0.00,CWS Microserver 1.4,2013-02-13 23:57:00,
2013-02-13 17:02:00,29.0,10.5,30.22,WNW,286,4.0,7.8,45,0.00,,,0.00,CWS Microserver 1.4,2013-02-14 00:02:00,
2013-02-13 17:07:00,28.8,10.5,30.22,NW,306,4.8,8.7,45,0.00,,,0.00,CWS Microserver 1.4,2013-02-14 00:07:00,
2013-02-13 17:12:00,28.8,10.8,30.22,WNW,294,7.0,8.7,46,0.00,,,0.00,CWS Microserver 1.4,2013-02-14 00:12:00,
2013-02-13 17:17:00,28.4,11.0,30.21,WSW,255,3.3,9.2,47,0.00,,,0.00,CWS Microserver 1.4,2013-02-14 00:17:00,
2013-02-13 17:22:00,28.3,10.9,30.21,NW,314,3.6,9.2,47,0.00,,,0.00,CWS Microserver 1.4,2013-02-14 00:22:00,
2013-02-13 17:27:00,28.1,10.4,30.21,ESE,113,0.6,9.2,46,0.00,,,0.00,CWS Microserver 1.4,2013-02-14 00:27:00,
2013-02-13 17:32:00,27.9,10.5,30.22,West,278,2.9,9.2,47,0.00,,,0.00,CWS Microserver 1.4,2013-02-14 00:32:00,
2013-02-13 17:37:00,28.1,10.2,30.21,SW,227,3.6,6.9,46,0.00,,,0.00,CWS Microserver 1.4,2013-02-14 00:37:00,
2013-02-13 17:42:00,27.9,10.3,30.21,NW,308,1.1,9.2,47,0.00,,,0.00,CWS Microserver 1.4,2013-02-14 00:42:00,
2013-02-13 17:47:00,27.5,9.8,30.21,SE,126,3.9,9.2,46,0.00,,,0.00,CWS Microserver 1.4,2013-02-14 00:47:00,
2013-02-13 17:57:00,28.1,9.8,30.21,East,80,1.3,25.5,45,0.00,,,0.00,CWS Microserver 1.4,2013-02-14 00:57:00,
2013-02-13 18:02:00,27.7,9.2,30.21,NW,304,1.4,25.5,45,0.00,,,0.00,CWS Microserver 1.4,2013-02-14 01:02:00,
2013-02-13 18:07:00,27.5,9.2,30.21,ESE,110,0.9,17.3,45,0.00,,,0.00,CWS Microserver 1.4,2013-02-14 01:07:00,
2013-02-13 18:12:00,27.5,9.7,30.21,NE,54,3.1,17.3,46,0.00,,,0.00,CWS Microserver 1.4,2013-02-14 01:12:00,
2013-02-13 18:27:00,27.0,10.0,30.21,SE,137,6.8,12.0,48,0.00,,,0.00,CWS Microserver 1.4,2013-02-14 01:27:00,
2013-02-13 18:32:00,26.3,9.5,30.21,East,96,3.1,12.0,48,0.00,,,0.00,CWS Microserver 1.4,2013-02-14 01:32:00,
2013-02-13 18:37:00,26.1,9.2,30.21,East,90,7.3,10.7,48,0.00,,,0.00,CWS Microserver 1.4,2013-02-14 01:37:00,
2013-02-13 18:47:00,26.5,9.5,30.21,East,99,3.1,8.3,48,0.00,,,0.00,CWS Microserver 1.4,2013-02-14 01:47:00,
2013-02-13 18:52:00,26.5,10.3,30.22,North,352,7.9,14.6,49,0.00,,,0.00,CWS Microserver 1.4,2013-02-14 01:52:00,
2013-02-13 18:57:00,26.3,10.1,30.22,SSW,198,1.7,14.6,49,0.00,,,0.00,CWS Microserver 1.4,2013-02-14 01:57:00,
2013-02-13 19:02:00,26.3,9.6,30.21,ESE,116,4.5,13.6,48,0.00,,,0.00,CWS Microserver 1.4,2013-02-14 02:02:00,
2013-02-13 19:07:00,26.1,10.1,30.21,NNW,340,2.9,13.6,50,0.00,,,0.00,CWS Microserver 1.4,2013-02-14 02:07:00,
2013-02-13 19:12:00,26.1,9.1,30.21,ENE,62,4.7,8.5,48,0.00,,,0.00,CWS Microserver 1.4,2013-02-14 02:12:00,
2013-02-13 19:17:00,25.4,8.6,30.21,East,98,3.9,8.5,48,0.00,,,0.00,CWS Microserver 1.4,2013-02-14 02:17:00,
2013-02-13 19:22:00,26.3,7.9,30.21,NNE,20,3.3,9.1,45,0.00,,,0.00,CWS Microserver 1.4,2013-02-14 02:22:00,
2013-02-13 19:30:00,26.6,8.4,30.21,SE,129,7.5,17.7,45,0.00,,,0.00,CWS Microserver 1.4,2013-02-14 02:30:00,
2013-02-13 19:35:00,26.6,8.5,30.21,East,99,5.8,17.7,45,0.00,,,0.00,CWS Microserver 1.4,2013-02-14 02:35:00,
2013-02-13 19:40:00,26.8,7.9,30.21,East,86,9.6,14.6,44,0.00,,,0.00,CWS Microserver 1.4,2013-02-14 02:40:00,
2013-02-13 19:46:00,26.8,8.3,30.21,ESE,110,7.2,17.9,45,0.00,,,0.00,CWS Microserver 1.4,2013-02-14 02:46:00,
2013-02-13 20:00:00,27.0,8.1,30.21,East,83,2.4,14.4,44,0.00,,,0.00,CWS Microserver 1.4,2013-02-14 03:00:00,
2013-02-13 20:05:00,27.0,7.9,30.21,NE,38,1.1,18.0,43,0.00,,,0.00,CWS Microserver 1.4,2013-02-14 03:05:00,
2013-02-13 20:10:00,27.0,7.6,30.20,SE,124,7.5,18.0,43,0.00,,,0.00,CWS Microserver 1.4,2013-02-14 03:10:00,
2013-02-13 20:19:00,27.0,7.7,30.21,NW,326,5.7,16.1,43,0.00,,,0.00,CWS Microserver 1.4,2013-02-14 03:19:00,
2013-02-13 20:33:00,27.0,7.6,30.20,WSW,237,1.9,15.1,43,0.00,,,0.00,CWS Microserver 1.4,2013-02-14 03:33:00,
2013-02-13 20:38:00,26.8,7.3,30.21,NE,47,2.0,15.1,43,0.00,,,0.00,CWS Microserver 1.4,2013-02-14 03:38:00,
2013-02-13 20:43:00,27.0,8.0,30.21,ESE,107,6.4,14.7,44,0.00,,,0.00,CWS Microserver 1.4,2013-02-14 03:43:00,
2013-02-13 20:48:00,27.0,7.7,30.21,ENE,63,6.0,20.3,43,0.00,,,0.00,CWS Microserver 1.4,2013-02-14 03:48:00,
2013-02-13 20:53:00,26.8,7.7,30.21,NE,42,1.3,20.3,43,0.00,,,0.00,CWS Microserver 1.4,2013-02-14 03:53:00,
2013-02-13 21:04:00,27.0,7.7,30.21,SE,144,4.2,14.8,43,0.00,,,0.00,CWS Microserver 1.4,2013-02-14 04:04:00,
2013-02-13 21:09:00,26.6,7.8,30.21,ENE,75,6.5,15.3,44,0.00,,,0.00,CWS Microserver 1.4,2013-02-14 04:09:00,
2013-02-13 21:14:00,26.8,7.9,30.21,East,96,5.8,15.4,44,0.00,,,0.00,CWS Microserver 1.4,2013-02-14 04:14:00,
2013-02-13 21:19:00,26.8,7.7,30.21,ESE,104,5.9,15.4,43,0.00,,,0.00,CWS Microserver 1.4,2013-02-14 04:19:00,
2013-02-13 21:27:00,26.5,8.4,30.21,East,91,13.1,13.1,45,0.00,,,0.00,CWS Microserver 1.4,2013-02-14 04:27:00,
2013-02-13 21:32:00,26.3,8.5,30.21,SW,218,2.1,13.3,46,0.00,,,0.00,CWS Microserver 1.4,2013-02-14 04:32:00,
2013-02-13 21:37:00,26.3,8.1,30.21,SSE,155,4.6,16.7,45,0.00,,,0.00,CWS Microserver 1.4,2013-02-14 04:37:00,
2013-02-13 21:42:00,26.3,8.2,30.21,East,85,4.9,16.7,45,0.00,,,0.00,CWS Microserver 1.4,2013-02-14 04:42:00,
2013-02-13 21:47:00,26.3,8.2,30.21,ENE,72,4.2,9.3,45,0.00,,,0.00,CWS Microserver 1.4,2013-02-14 04:47:00,
2013-02-13 21:52:00,26.1,8.3,30.21,ESE,116,5.0,9.0,46,0.00,,,0.00,CWS Microserver 1.4,2013-02-14 04:52:00,
2013-02-13 21:57:00,25.9,7.9,30.21,ESE,119,6.7,9.0,45,0.00,,,0.00,CWS Microserver 1.4,2013-02-14 04:57:00,
2013-02-13 22:02:00,26.5,7.8,30.21,East,101,8.1,13.2,44,0.00,,,0.00,CWS Microserver 1.4,2013-02-14 05:02:00,
2013-02-13 22:10:00,25.9,7.7,30.21,ESE,119,6.3,6.6,45,0.00,,,0.00,CWS Microserver 1.4,2013-02-14 05:10:00,
2013-02-13 22:15:00,25.9,7.8,30.21,NNW,335,1.6,6.9,45,0.00,,,0.00,CWS Microserver 1.4,2013-02-14 05:15:00,
2013-02-13 22:20:00,25.4,8.0,30.21,West,261,2.0,6.9,47,0.00,,,0.00,CWS Microserver 1.4,2013-02-14 05:20:00,
2013-02-13 22:25:00,25.0,8.1,30.21,WSW,256,2.6,5.2,48,0.00,,,0.00,CWS Microserver 1.4,2013-02-14 05:25:00,
2013-02-13 22:30:00,24.5,7.5,30.21,NE,37,2.2,5.3,47,0.00,,,0.00,CWS Microserver 1.4,2013-02-14 05:30:00,
2013-02-13 22:35:00,24.5,8.2,30.21,SSE,165,3.2,5.3,49,0.00,,,0.00,CWS Microserver 1.4,2013-02-14 05:35:00,
2013-02-13 22:45:00,25.9,7.0,30.21,ENE,75,4.7,10.9,44,0.00,,,0.00,CWS Microserver 1.4,2013-02-14 05:45:00,
2013-02-13 22:53:00,26.3,7.0,30.21,SE,128,5.0,5.0,43,0.00,,,0.00,CWS Microserver 1.4,2013-02-14 05:53:00,
2013-02-13 22:58:00,26.1,7.1,30.21,NE,43,0.8,6.5,43,0.00,,,0.00,CWS Microserver 1.4,2013-02-14 05:58:00,
2013-02-13 23:03:00,26.1,7.0,30.20,NNW,344,2.8,6.5,43,0.00,,,0.00,CWS Microserver 1.4,2013-02-14 06:03:00,
2013-02-13 23:08:00,26.3,7.4,30.20,NW,310,5.7,6.8,44,0.00,,,0.00,CWS Microserver 1.4,2013-02-14 06:08:00,
2013-02-13 23:13:00,25.7,7.0,30.21,North,6,4.6,6.8,44,0.00,,,0.00,CWS Microserver 1.4,2013-02-14 06:13:00,
2013-02-13 23:18:00,25.6,6.8,30.21,NNW,341,3.8,6.5,44,0.00,,,0.00,CWS Microserver 1.4,2013-02-14 06:18:00,
2013-02-13 23:23:00,25.7,6.8,30.21,NNW,346,1.0,6.7,44,0.00,,,0.00,CWS Microserver 1.4,2013-02-14 06:23:00,
2013-02-13 23:28:00,26.5,6.9,30.21,East,98,4.5,9.6,42,0.00,,,0.00,CWS Microserver 1.4,2013-02-14 06:28:00,
2013-02-13 23:33:00,27.0,6.9,30.21,ESE,111,5.8,10.0,41,0.00,,,0.00,CWS Microserver 1.4,2013-02-14 06:33:00,
2013-02-13 23:43:00,27.0,6.8,30.21,NE,52,7.2,8.6,41,0.00,,,0.00,CWS Microserver 1.4,2013-02-14 06:43:00,
2013-02-13 23:48:00,27.0,6.8,30.21,SE,129,7.5,11.4,41,0.00,,,0.00,CWS Microserver 1.4,2013-02-14 06:48:00,
2013-02-13 23:53:00,27.0,6.5,30.21,WNW,297,3.4,11.4,41,0.00,,,0.00,CWS Microserver 1.4,2013-02-14 06:53:00,
2013-02-13 23:58:00,26.1,6.9,30.21,NNW,337,2.9,8.2,43,0.00,,,0.00,CWS Microserver 1.4,2013-02-14 06:58:00,